Fair — XP9552 — position and weather

sailwx.info

Track history (hours):
 
Tides and Currents Weather Stations Pressure Air Temp Water Temp Dewpoint Dewpoint Depression Visibility Wind Speed Wind Dir Waves Ship Positions

Fair

Last reported at 2017-Aug-29 06:56 UTC. Time now 2018-Feb-19 02:42 UTC.
Position N 38°39' W 009°07'.
Warning: this ship's position is months out of date.

Type: Sailing vessel. MMSI: 219018226.

Date/timePositionNaut miles runAvg speedWind from/ knotsBaromVisibWave heightAir tempDewpointWater temp
2017-Aug-29 06:56N 38°39' W 009°07'0 0.0
2017-Aug-29 06:17N 38°39' W 009°07'0 0.0
2017-Aug-29 04:08N 38°39' W 009°07'0 0.0
2017-Aug-28 17:22N 38°39' W 009°06'4 4.8
2017-Aug-28 16:32N 38°41' W 009°10'1 6.2
2017-Aug-28 16:27N 38°41' W 009°11'3 6.2
2017-Aug-28 15:56N 38°41' W 009°15'3 6.0
2017-Aug-28 15:29N 38°41' W 009°18'3 5.8
2017-Aug-28 14:58N 38°41' W 009°22'3 4.2
2017-Aug-28 14:22N 38°42' W 009°25'  
2017-Aug-19 17:53N 38°42' W 009°25'  
Track history (hours):
 
Tides and Currents Weather Stations Pressure Air Temp Water Temp Dewpoint Dewpoint Depression Visibility Wind Speed Wind Dir Waves Ship Positions

Fair

Last reported at 2017-Aug-29 06:56 UTC. Time now 2018-Feb-19 02:42 UTC.
Position N 38°39' W 009°07'.
Warning: this ship's position is months out of date.

Type: Sailing vessel. MMSI: 219018226.

Date/timePositionNaut miles runAvg speedWind from/ knotsBaromVisibWave heightAir tempDewpointWater temp
2017-Aug-29 06:56N 38°39' W 009°07'0 0.0
2017-Aug-29 06:17N 38°39' W 009°07'0 0.0
2017-Aug-29 04:08N 38°39' W 009°07'0 0.0
2017-Aug-28 17:22N 38°39' W 009°06'4 4.8
2017-Aug-28 16:32N 38°41' W 009°10'1 6.2
2017-Aug-28 16:27N 38°41' W 009°11'3 6.2
2017-Aug-28 15:56N 38°41' W 009°15'3 6.0
2017-Aug-28 15:29N 38°41' W 009°18'3 5.8
2017-Aug-28 14:58N 38°41' W 009°22'3 4.2
2017-Aug-28 14:22N 38°42' W 009°25'  
2017-Aug-19 17:53N 38°42' W 009°25'  

Dump ship's entire track history